sensor_id;sensor_type;location;lat;lon;timestamp;P1;durP1;ratioP1;P2;durP2;ratioP2
53714;SDS011;39608;55.630;37.864;2023-07-28T00:04:56;19.88;;;10.65;;
53714;SDS011;39608;55.630;37.864;2023-07-28T00:09:58;16.27;;;9.85;;
53714;SDS011;39608;55.630;37.864;2023-07-28T00:15:00;26.00;;;10.25;;
53714;SDS011;39608;55.630;37.864;2023-07-28T00:20:08;13.10;;;9.43;;
53714;SDS011;39608;55.630;37.864;2023-07-28T00:25:11;13.50;;;9.98;;
53714;SDS011;39608;55.630;37.864;2023-07-28T00:30:13;10.35;;;9.07;;
53714;SDS011;39608;55.630;37.864;2023-07-28T00:35:16;17.63;;;8.98;;
53714;SDS011;39608;55.630;37.864;2023-07-28T00:40:18;20.17;;;9.75;;
53714;SDS011;39608;55.630;37.864;2023-07-28T00:45:20;11.30;;;9.25;;
53714;SDS011;39608;55.630;37.864;2023-07-28T00:50:24;13.02;;;9.48;;
53714;SDS011;39608;55.630;37.864;2023-07-28T00:55:27;15.32;;;9.40;;
53714;SDS011;39608;55.630;37.864;2023-07-28T01:00:29;15.45;;;9.73;;
53714;SDS011;39608;55.630;37.864;2023-07-28T01:05:33;16.05;;;9.60;;
53714;SDS011;39608;55.630;37.864;2023-07-28T01:10:41;12.88;;;9.38;;
53714;SDS011;39608;55.630;37.864;2023-07-28T01:15:43;13.05;;;9.38;;
53714;SDS011;39608;55.630;37.864;2023-07-28T01:20:47;10.23;;;8.85;;
53714;SDS011;39608;55.630;37.864;2023-07-28T01:25:57;14.75;;;9.70;;
53714;SDS011;39608;55.630;37.864;2023-07-28T01:31:07;15.27;;;9.95;;
53714;SDS011;39608;55.630;37.864;2023-07-28T01:36:10;13.35;;;9.95;;
53714;SDS011;39608;55.630;37.864;2023-07-28T01:41:12;13.40;;;10.07;;
53714;SDS011;39608;55.630;37.864;2023-07-28T01:46:15;13.38;;;10.10;;
53714;SDS011;39608;55.630;37.864;2023-07-28T01:51:17;17.85;;;9.75;;
53714;SDS011;39608;55.630;37.864;2023-07-28T01:56:19;16.75;;;10.00;;
53714;SDS011;39608;55.630;37.864;2023-07-28T02:01:23;15.48;;;10.50;;
53714;SDS011;39608;55.630;37.864;2023-07-28T02:06:24;14.45;;;10.18;;
53714;SDS011;39608;55.630;37.864;2023-07-28T02:11:28;14.43;;;10.63;;
53714;SDS011;39608;55.630;37.864;2023-07-28T02:16:31;15.52;;;10.55;;
53714;SDS011;39608;55.630;37.864;2023-07-28T02:21:33;14.77;;;10.40;;
53714;SDS011;39608;55.630;37.864;2023-07-28T02:26:35;13.30;;;10.02;;
53714;SDS011;39608;55.630;37.864;2023-07-28T02:31:39;13.38;;;10.75;;
53714;SDS011;39608;55.630;37.864;2023-07-28T02:36:41;15.15;;;10.60;;
53714;SDS011;39608;55.630;37.864;2023-07-28T02:41:43;20.50;;;11.07;;
53714;SDS011;39608;55.630;37.864;2023-07-28T02:46:47;16.90;;;10.75;;
53714;SDS011;39608;55.630;37.864;2023-07-28T02:51:49;15.15;;;10.45;;
53714;SDS011;39608;55.630;37.864;2023-07-28T02:56:51;15.88;;;10.50;;
53714;SDS011;39608;55.630;37.864;2023-07-28T03:01:55;11.85;;;9.77;;
53714;SDS011;39608;55.630;37.864;2023-07-28T03:06:57;16.23;;;10.05;;
53714;SDS011;39608;55.630;37.864;2023-07-28T03:11:59;19.25;;;10.05;;
53714;SDS011;39608;55.630;37.864;2023-07-28T03:17:03;14.13;;;9.30;;
53714;SDS011;39608;55.630;37.864;2023-07-28T03:22:06;15.30;;;9.75;;
53714;SDS011;39608;55.630;37.864;2023-07-28T03:27:09;17.77;;;10.43;;
53714;SDS011;39608;55.630;37.864;2023-07-28T03:32:12;20.60;;;10.85;;
53714;SDS011;39608;55.630;37.864;2023-07-28T03:37:14;16.48;;;10.40;;
53714;SDS011;39608;55.630;37.864;2023-07-28T03:42:16;11.98;;;10.23;;
53714;SDS011;39608;55.630;37.864;2023-07-28T03:47:20;17.50;;;11.60;;
53714;SDS011;39608;55.630;37.864;2023-07-28T03:53:01;33.75;;;12.10;;
53714;SDS011;39608;55.630;37.864;2023-07-28T03:57:53;44.95;;;11.43;;
53714;SDS011;39608;55.630;37.864;2023-07-28T04:02:57;8.95;;;8.02;;
53714;SDS011;39608;55.630;37.864;2023-07-28T04:07:59;5.28;;;4.72;;
53714;SDS011;39608;55.630;37.864;2023-07-28T04:13:01;4.97;;;4.57;;
53714;SDS011;39608;55.630;37.864;2023-07-28T04:18:05;2.35;;;2.15;;
53714;SDS011;39608;55.630;37.864;2023-07-28T04:23:07;2.28;;;2.08;;
53714;SDS011;39608;55.630;37.864;2023-07-28T04:28:09;1.70;;;1.60;;
53714;SDS011;39608;55.630;37.864;2023-07-28T04:33:12;1.08;;;1.08;;
53714;SDS011;39608;55.630;37.864;2023-07-28T04:38:14;1.48;;;1.38;;
53714;SDS011;39608;55.630;37.864;2023-07-28T04:43:17;1.10;;;1.00;;
53714;SDS011;39608;55.630;37.864;2023-07-28T04:48:21;1.10;;;1.10;;
53714;SDS011;39608;55.630;37.864;2023-07-28T04:53:23;1.65;;;1.55;;
53714;SDS011;39608;55.630;37.864;2023-07-28T04:58:25;1.80;;;1.70;;
53714;SDS011;39608;55.630;37.864;2023-07-28T05:03:28;1.88;;;1.77;;
53714;SDS011;39608;55.630;37.864;2023-07-28T05:08:31;1.85;;;1.75;;
53714;SDS011;39608;55.630;37.864;2023-07-28T05:13:33;1.98;;;1.88;;
53714;SDS011;39608;55.630;37.864;2023-07-28T05:18:36;3.85;;;3.00;;
53714;SDS011;39608;55.630;37.864;2023-07-28T05:23:38;4.38;;;2.67;;
53714;SDS011;39608;55.630;37.864;2023-07-28T05:28:40;3.03;;;2.40;;
53714;SDS011;39608;55.630;37.864;2023-07-28T05:33:44;2.95;;;2.17;;
53714;SDS011;39608;55.630;37.864;2023-07-28T05:38:47;2.67;;;2.30;;
53714;SDS011;39608;55.630;37.864;2023-07-28T05:43:49;4.10;;;2.20;;
53714;SDS011;39608;55.630;37.864;2023-07-28T05:48:53;3.72;;;2.38;;
53714;SDS011;39608;55.630;37.864;2023-07-28T05:53:55;3.72;;;2.80;;
53714;SDS011;39608;55.630;37.864;2023-07-28T05:58:57;7.93;;;3.10;;
53714;SDS011;39608;55.630;37.864;2023-07-28T06:04:01;9.13;;;3.40;;
53714;SDS011;39608;55.630;37.864;2023-07-28T06:09:03;8.30;;;3.33;;
53714;SDS011;39608;55.630;37.864;2023-07-28T06:14:05;4.50;;;3.10;;
53714;SDS011;39608;55.630;37.864;2023-07-28T06:19:08;6.50;;;3.50;;
53714;SDS011;39608;55.630;37.864;2023-07-28T06:24:10;10.10;;;4.43;;
53714;SDS011;39608;55.630;37.864;2023-07-28T06:29:13;10.88;;;6.00;;
53714;SDS011;39608;55.630;37.864;2023-07-28T06:34:16;10.90;;;6.82;;
53714;SDS011;39608;55.630;37.864;2023-07-28T06:39:18;6.60;;;4.40;;
53714;SDS011;39608;55.630;37.864;2023-07-28T06:44:20;6.50;;;4.18;;
53714;SDS011;39608;55.630;37.864;2023-07-28T06:49:24;10.07;;;3.88;;
53714;SDS011;39608;55.630;37.864;2023-07-28T06:54:26;7.45;;;3.63;;
53714;SDS011;39608;55.630;37.864;2023-07-28T06:59:28;5.72;;;3.40;;
53714;SDS011;39608;55.630;37.864;2023-07-28T07:04:31;6.28;;;3.38;;
53714;SDS011;39608;55.630;37.864;2023-07-28T07:09:33;6.78;;;3.50;;
53714;SDS011;39608;55.630;37.864;2023-07-28T07:14:36;7.93;;;3.33;;
53714;SDS011;39608;55.630;37.864;2023-07-28T07:19:39;5.60;;;3.72;;
53714;SDS011;39608;55.630;37.864;2023-07-28T07:24:41;8.13;;;3.55;;
53714;SDS011;39608;55.630;37.864;2023-07-28T07:29:43;6.03;;;3.47;;
53714;SDS011;39608;55.630;37.864;2023-07-28T07:34:47;6.88;;;3.30;;
53714;SDS011;39608;55.630;37.864;2023-07-28T07:39:49;7.57;;;3.30;;
53714;SDS011;39608;55.630;37.864;2023-07-28T07:44:51;6.75;;;3.63;;
53714;SDS011;39608;55.630;37.864;2023-07-28T07:49:58;4.57;;;3.33;;
53714;SDS011;39608;55.630;37.864;2023-07-28T07:55:00;5.32;;;3.20;;
53714;SDS011;39608;55.630;37.864;2023-07-28T08:00:05;10.25;;;2.90;;
53714;SDS011;39608;55.630;37.864;2023-07-28T08:05:10;5.60;;;3.15;;
53714;SDS011;39608;55.630;37.864;2023-07-28T08:10:12;6.30;;;2.92;;
53714;SDS011;39608;55.630;37.864;2023-07-28T08:15:14;10.15;;;3.08;;
53714;SDS011;39608;55.630;37.864;2023-07-28T08:20:18;3.42;;;2.47;;
53714;SDS011;39608;55.630;37.864;2023-07-28T08:25:20;6.55;;;3.15;;
53714;SDS011;39608;55.630;37.864;2023-07-28T08:30:23;5.20;;;3.05;;
53714;SDS011;39608;55.630;37.864;2023-07-28T08:35:26;6.15;;;2.70;;
53714;SDS011;39608;55.630;37.864;2023-07-28T08:40:29;3.88;;;2.33;;
53714;SDS011;39608;55.630;37.864;2023-07-28T08:45:31;9.60;;;2.47;;
53714;SDS011;39608;55.630;37.864;2023-07-28T08:50:34;5.90;;;2.90;;
53714;SDS011;39608;55.630;37.864;2023-07-28T08:55:36;5.05;;;2.65;;
53714;SDS011;39608;55.630;37.864;2023-07-28T09:00:38;6.45;;;2.60;;
53714;SDS011;39608;55.630;37.864;2023-07-28T09:05:43;5.57;;;2.50;;
53714;SDS011;39608;55.630;37.864;2023-07-28T09:10:48;7.40;;;2.92;;
53714;SDS011;39608;55.630;37.864;2023-07-28T09:15:50;7.18;;;3.10;;
53714;SDS011;39608;55.630;37.864;2023-07-28T09:20:54;5.45;;;3.25;;
53714;SDS011;39608;55.630;37.864;2023-07-28T09:25:58;8.98;;;4.20;;
53714;SDS011;39608;55.630;37.864;2023-07-28T09:31:01;8.13;;;4.30;;
53714;SDS011;39608;55.630;37.864;2023-07-28T09:36:10;10.57;;;4.40;;
53714;SDS011;39608;55.630;37.864;2023-07-28T09:41:13;11.48;;;5.15;;
53714;SDS011;39608;55.630;37.864;2023-07-28T09:46:15;17.77;;;5.05;;
53714;SDS011;39608;55.630;37.864;2023-07-28T09:51:20;7.63;;;4.75;;
53714;SDS011;39608;55.630;37.864;2023-07-28T09:56:25;11.20;;;5.07;;
53714;SDS011;39608;55.630;37.864;2023-07-28T10:06:34;12.07;;;6.00;;
53714;SDS011;39608;55.630;37.864;2023-07-28T10:11:38;8.52;;;5.35;;
53714;SDS011;39608;55.630;37.864;2023-07-28T10:16:40;9.38;;;5.72;;
53714;SDS011;39608;55.630;37.864;2023-07-28T10:21:43;8.80;;;6.20;;
53714;SDS011;39608;55.630;37.864;2023-07-28T10:26:45;12.25;;;6.07;;
53714;SDS011;39608;55.630;37.864;2023-07-28T10:31:51;8.52;;;7.07;;
53714;SDS011;39608;55.630;37.864;2023-07-28T10:36:58;14.70;;;6.93;;
53714;SDS011;39608;55.630;37.864;2023-07-28T10:42:01;16.13;;;8.38;;
53714;SDS011;39608;55.630;37.864;2023-07-28T10:47:07;13.65;;;8.23;;
53714;SDS011;39608;55.630;37.864;2023-07-28T10:52:11;15.82;;;7.80;;
53714;SDS011;39608;55.630;37.864;2023-07-28T10:57:13;20.60;;;6.80;;
53714;SDS011;39608;55.630;37.864;2023-07-28T11:02:15;11.98;;;5.72;;
53714;SDS011;39608;55.630;37.864;2023-07-28T11:07:19;13.57;;;5.70;;
53714;SDS011;39608;55.630;37.864;2023-07-28T11:12:21;9.90;;;5.10;;
53714;SDS011;39608;55.630;37.864;2023-07-28T11:17:24;10.40;;;4.88;;
53714;SDS011;39608;55.630;37.864;2023-07-28T11:22:29;6.80;;;4.60;;
53714;SDS011;39608;55.630;37.864;2023-07-28T11:27:31;8.07;;;4.60;;
53714;SDS011;39608;55.630;37.864;2023-07-28T11:32:34;11.48;;;5.25;;
53714;SDS011;39608;55.630;37.864;2023-07-28T11:37:38;13.30;;;5.22;;
53714;SDS011;39608;55.630;37.864;2023-07-28T11:42:43;9.05;;;4.57;;
53714;SDS011;39608;55.630;37.864;2023-07-28T11:47:54;8.60;;;5.82;;
53714;SDS011;39608;55.630;37.864;2023-07-28T11:52:58;13.85;;;5.60;;
53714;SDS011;39608;55.630;37.864;2023-07-28T11:58:00;10.77;;;5.07;;
53714;SDS011;39608;55.630;37.864;2023-07-28T12:03:05;12.55;;;5.90;;
53714;SDS011;39608;55.630;37.864;2023-07-28T12:08:12;14.82;;;6.47;;
53714;SDS011;39608;55.630;37.864;2023-07-28T12:13:14;11.55;;;6.93;;
53714;SDS011;39608;55.630;37.864;2023-07-28T12:18:16;16.75;;;7.78;;
53714;SDS011;39608;55.630;37.864;2023-07-28T12:23:21;14.95;;;9.10;;
53714;SDS011;39608;55.630;37.864;2023-07-28T12:28:24;11.98;;;7.93;;
53714;SDS011;39608;55.630;37.864;2023-07-28T12:33:26;12.60;;;7.45;;
53714;SDS011;39608;55.630;37.864;2023-07-28T12:38:29;12.23;;;8.52;;
53714;SDS011;39608;55.630;37.864;2023-07-28T12:43:33;14.95;;;8.63;;
53714;SDS011;39608;55.630;37.864;2023-07-28T12:48:35;16.02;;;10.18;;
53714;SDS011;39608;55.630;37.864;2023-07-28T12:53:38;13.57;;;8.95;;
53714;SDS011;39608;55.630;37.864;2023-07-28T12:58:40;12.68;;;8.88;;
53714;SDS011;39608;55.630;37.864;2023-07-28T13:03:42;12.23;;;8.55;;
53714;SDS011;39608;55.630;37.864;2023-07-28T13:08:45;13.38;;;9.13;;
53714;SDS011;39608;55.630;37.864;2023-07-28T13:13:48;9.95;;;8.88;;
53714;SDS011;39608;55.630;37.864;2023-07-28T13:18:50;9.60;;;8.60;;
53714;SDS011;39608;55.630;37.864;2023-07-28T13:23:53;9.48;;;8.35;;
53714;SDS011;39608;55.630;37.864;2023-07-28T13:28:55;10.27;;;8.82;;
53714;SDS011;39608;55.630;37.864;2023-07-28T13:33:59;11.85;;;9.93;;
53714;SDS011;39608;55.630;37.864;2023-07-28T13:39:02;12.25;;;9.07;;
53714;SDS011;39608;55.630;37.864;2023-07-28T13:44:04;9.10;;;6.82;;
53714;SDS011;39608;55.630;37.864;2023-07-28T13:49:06;10.23;;;4.57;;
53714;SDS011;39608;55.630;37.864;2023-07-28T13:54:11;4.15;;;3.03;;
53714;SDS011;39608;55.630;37.864;2023-07-28T13:59:13;4.38;;;2.75;;
53714;SDS011;39608;55.630;37.864;2023-07-28T14:04:15;4.35;;;3.72;;
53714;SDS011;39608;55.630;37.864;2023-07-28T14:09:19;11.52;;;4.22;;
53714;SDS011;39608;55.630;37.864;2023-07-28T14:14:21;8.25;;;3.72;;
53714;SDS011;39608;55.630;37.864;2023-07-28T14:19:24;7.40;;;3.53;;
53714;SDS011;39608;55.630;37.864;2023-07-28T14:24:30;4.57;;;3.65;;
53714;SDS011;39608;55.630;37.864;2023-07-28T14:29:32;3.90;;;3.22;;
53714;SDS011;39608;55.630;37.864;2023-07-28T14:34:34;5.28;;;4.70;;
53714;SDS011;39608;55.630;37.864;2023-07-28T14:39:38;7.00;;;3.67;;
53714;SDS011;39608;55.630;37.864;2023-07-28T14:44:40;8.68;;;4.22;;
53714;SDS011;39608;55.630;37.864;2023-07-28T14:49:42;4.00;;;2.42;;
53714;SDS011;39608;55.630;37.864;2023-07-28T14:54:45;5.07;;;2.67;;
53714;SDS011;39608;55.630;37.864;2023-07-28T14:59:47;5.90;;;2.30;;
53714;SDS011;39608;55.630;37.864;2023-07-28T15:04:49;2.65;;;2.15;;
53714;SDS011;39608;55.630;37.864;2023-07-28T15:09:54;3.60;;;2.22;;
53714;SDS011;39608;55.630;37.864;2023-07-28T15:14:56;5.57;;;2.60;;
53714;SDS011;39608;55.630;37.864;2023-07-28T15:19:58;5.82;;;2.28;;
53714;SDS011;39608;55.630;37.864;2023-07-28T15:25:02;3.03;;;2.30;;
53714;SDS011;39608;55.630;37.864;2023-07-28T15:30:05;6.00;;;2.58;;
53714;SDS011;39608;55.630;37.864;2023-07-28T15:35:08;9.05;;;3.58;;
53714;SDS011;39608;55.630;37.864;2023-07-28T15:40:12;6.45;;;3.35;;
53714;SDS011;39608;55.630;37.864;2023-07-28T15:45:14;7.82;;;2.90;;
53714;SDS011;39608;55.630;37.864;2023-07-28T15:50:16;7.28;;;3.03;;
53714;SDS011;39608;55.630;37.864;2023-07-28T15:55:20;9.45;;;3.40;;
53714;SDS011;39608;55.630;37.864;2023-07-28T16:00:22;13.10;;;3.25;;
53714;SDS011;39608;55.630;37.864;2023-07-28T16:05:24;6.32;;;3.30;;
53714;SDS011;39608;55.630;37.864;2023-07-28T16:10:27;22.05;;;5.50;;
53714;SDS011;39608;55.630;37.864;2023-07-28T16:15:30;19.08;;;5.43;;
53714;SDS011;39608;55.630;37.864;2023-07-28T16:20:32;15.38;;;5.13;;
53714;SDS011;39608;55.630;37.864;2023-07-28T16:25:35;11.15;;;4.20;;
53714;SDS011;39608;55.630;37.864;2023-07-28T16:30:37;4.68;;;3.35;;
53714;SDS011;39608;55.630;37.864;2023-07-28T16:35:40;15.80;;;10.05;;
53714;SDS011;39608;55.630;37.864;2023-07-28T16:40:44;16.00;;;4.80;;
53714;SDS011;39608;55.630;37.864;2023-07-28T16:45:46;16.08;;;4.30;;
53714;SDS011;39608;55.630;37.864;2023-07-28T16:50:48;9.82;;;4.05;;
53714;SDS011;39608;55.630;37.864;2023-07-28T16:55:51;13.98;;;4.35;;
53714;SDS011;39608;55.630;37.864;2023-07-28T17:00:53;12.45;;;4.63;;
53714;SDS011;39608;55.630;37.864;2023-07-28T17:05:56;22.27;;;4.90;;
53714;SDS011;39608;55.630;37.864;2023-07-28T17:11:00;11.50;;;4.30;;
53714;SDS011;39608;55.630;37.864;2023-07-28T17:16:02;9.75;;;3.72;;
53714;SDS011;39608;55.630;37.864;2023-07-28T17:21:04;16.63;;;3.78;;
53714;SDS011;39608;55.630;37.864;2023-07-28T17:26:08;10.30;;;3.53;;
53714;SDS011;39608;55.630;37.864;2023-07-28T17:31:10;11.98;;;3.58;;
53714;SDS011;39608;55.630;37.864;2023-07-28T17:36:12;4.85;;;2.90;;
53714;SDS011;39608;55.630;37.864;2023-07-28T17:41:16;5.57;;;2.90;;
53714;SDS011;39608;55.630;37.864;2023-07-28T17:46:18;6.25;;;2.33;;
53714;SDS011;39608;55.630;37.864;2023-07-28T17:51:20;2.50;;;2.25;;
53714;SDS011;39608;55.630;37.864;2023-07-28T17:56:24;4.32;;;2.80;;
53714;SDS011;39608;55.630;37.864;2023-07-28T18:01:26;7.13;;;2.95;;
53714;SDS011;39608;55.630;37.864;2023-07-28T18:06:28;2.90;;;2.15;;
53714;SDS011;39608;55.630;37.864;2023-07-28T18:11:32;7.82;;;2.13;;
53714;SDS011;39608;55.630;37.864;2023-07-28T18:16:34;2.83;;;2.17;;
53714;SDS011;39608;55.630;37.864;2023-07-28T18:21:36;2.95;;;1.90;;
53714;SDS011;39608;55.630;37.864;2023-07-28T18:26:40;5.68;;;2.22;;
53714;SDS011;39608;55.630;37.864;2023-07-28T18:31:42;6.20;;;2.25;;
53714;SDS011;39608;55.630;37.864;2023-07-28T18:36:44;5.47;;;1.70;;
53714;SDS011;39608;55.630;37.864;2023-07-28T18:41:47;6.90;;;2.63;;
53714;SDS011;39608;55.630;37.864;2023-07-28T18:46:50;9.85;;;2.15;;
53714;SDS011;39608;55.630;37.864;2023-07-28T18:51:52;6.85;;;2.47;;
53714;SDS011;39608;55.630;37.864;2023-07-28T18:56:55;11.15;;;2.10;;
53714;SDS011;39608;55.630;37.864;2023-07-28T19:01:57;15.23;;;3.00;;
53714;SDS011;39608;55.630;37.864;2023-07-28T19:06:59;9.00;;;2.30;;
53714;SDS011;39608;55.630;37.864;2023-07-28T19:12:03;7.57;;;1.80;;
53714;SDS011;39608;55.630;37.864;2023-07-28T19:17:05;6.15;;;2.33;;
53714;SDS011;39608;55.630;37.864;2023-07-28T19:22:07;5.35;;;2.53;;
53714;SDS011;39608;55.630;37.864;2023-07-28T19:27:11;10.80;;;2.88;;
53714;SDS011;39608;55.630;37.864;2023-07-28T19:32:13;10.02;;;3.30;;
53714;SDS011;39608;55.630;37.864;2023-07-28T19:37:15;12.82;;;3.03;;
53714;SDS011;39608;55.630;37.864;2023-07-28T19:42:18;14.32;;;2.20;;
53714;SDS011;39608;55.630;37.864;2023-07-28T19:47:20;10.57;;;2.78;;
53714;SDS011;39608;55.630;37.864;2023-07-28T19:52:22;3.65;;;2.13;;
53714;SDS011;39608;55.630;37.864;2023-07-28T19:57:26;5.40;;;1.98;;
53714;SDS011;39608;55.630;37.864;2023-07-28T20:02:28;1.90;;;1.58;;
53714;SDS011;39608;55.630;37.864;2023-07-28T20:07:30;4.68;;;1.80;;
53714;SDS011;39608;55.630;37.864;2023-07-28T20:12:34;4.15;;;1.83;;
53714;SDS011;39608;55.630;37.864;2023-07-28T20:17:36;6.53;;;2.05;;
53714;SDS011;39608;55.630;37.864;2023-07-28T20:22:38;4.43;;;2.40;;
53714;SDS011;39608;55.630;37.864;2023-07-28T20:27:44;6.95;;;2.58;;
53714;SDS011;39608;55.630;37.864;2023-07-28T20:32:46;2.20;;;2.00;;
53714;SDS011;39608;55.630;37.864;2023-07-28T20:37:49;3.08;;;2.13;;
53714;SDS011;39608;55.630;37.864;2023-07-28T20:42:52;9.52;;;1.90;;
53714;SDS011;39608;55.630;37.864;2023-07-28T20:47:56;2.40;;;1.63;;
53714;SDS011;39608;55.630;37.864;2023-07-28T20:52:58;1.52;;;1.42;;
53714;SDS011;39608;55.630;37.864;2023-07-28T20:58:01;4.13;;;1.85;;
53714;SDS011;39608;55.630;37.864;2023-07-28T21:03:03;6.45;;;2.03;;
53714;SDS011;39608;55.630;37.864;2023-07-28T21:08:05;9.18;;;2.15;;
53714;SDS011;39608;55.630;37.864;2023-07-28T21:13:09;4.82;;;1.70;;
53714;SDS011;39608;55.630;37.864;2023-07-28T21:18:15;1.63;;;1.38;;
53714;SDS011;39608;55.630;37.864;2023-07-28T21:23:17;2.20;;;0.90;;
53714;SDS011;39608;55.630;37.864;2023-07-28T21:28:21;2.95;;;1.25;;
53714;SDS011;39608;55.630;37.864;2023-07-28T21:33:23;2.08;;;1.30;;
53714;SDS011;39608;55.630;37.864;2023-07-28T21:38:25;2.55;;;1.30;;
53714;SDS011;39608;55.630;37.864;2023-07-28T21:43:29;1.45;;;1.35;;
53714;SDS011;39608;55.630;37.864;2023-07-28T21:48:31;1.40;;;1.20;;
53714;SDS011;39608;55.630;37.864;2023-07-28T21:53:33;1.73;;;1.58;;
53714;SDS011;39608;55.630;37.864;2023-07-28T21:58:36;1.88;;;1.40;;
53714;SDS011;39608;55.630;37.864;2023-07-28T22:03:38;2.17;;;1.80;;
53714;SDS011;39608;55.630;37.864;2023-07-28T22:08:42;1.70;;;1.60;;
53714;SDS011;39608;55.630;37.864;2023-07-28T22:13:46;2.67;;;1.90;;
53714;SDS011;39608;55.630;37.864;2023-07-28T22:18:48;4.32;;;1.88;;
53714;SDS011;39608;55.630;37.864;2023-07-28T22:23:50;9.00;;;2.20;;
53714;SDS011;39608;55.630;37.864;2023-07-28T22:28:53;3.00;;;1.60;;
53714;SDS011;39608;55.630;37.864;2023-07-28T22:33:56;1.40;;;1.30;;
53714;SDS011;39608;55.630;37.864;2023-07-28T22:38:58;8.85;;;1.67;;
53714;SDS011;39608;55.630;37.864;2023-07-28T22:44:01;4.10;;;2.05;;
53714;SDS011;39608;55.630;37.864;2023-07-28T22:49:03;1.75;;;1.65;;
53714;SDS011;39608;55.630;37.864;2023-07-28T22:54:05;3.88;;;1.70;;
53714;SDS011;39608;55.630;37.864;2023-07-28T22:59:09;2.03;;;1.30;;
53714;SDS011;39608;55.630;37.864;2023-07-28T23:04:11;14.10;;;1.70;;
53714;SDS011;39608;55.630;37.864;2023-07-28T23:09:13;1.88;;;1.30;;
53714;SDS011;39608;55.630;37.864;2023-07-28T23:14:17;1.40;;;1.30;;
53714;SDS011;39608;55.630;37.864;2023-07-28T23:19:19;2.03;;;1.40;;
53714;SDS011;39608;55.630;37.864;2023-07-28T23:24:21;2.63;;;1.50;;
53714;SDS011;39608;55.630;37.864;2023-07-28T23:29:24;1.42;;;1.33;;
53714;SDS011;39608;55.630;37.864;2023-07-28T23:34:26;4.07;;;1.98;;
53714;SDS011;39608;55.630;37.864;2023-07-28T23:39:28;5.35;;;1.55;;
53714;SDS011;39608;55.630;37.864;2023-07-28T23:44:32;2.85;;;1.80;;
53714;SDS011;39608;55.630;37.864;2023-07-28T23:49:34;3.42;;;1.63;;
53714;SDS011;39608;55.630;37.864;2023-07-28T23:54:36;3.60;;;1.73;;
53714;SDS011;39608;55.630;37.864;2023-07-28T23:59:39;3.90;;;1.83;;
